sensor_id;sensor_type;location;lat;lon;timestamp;P1;durP1;ratioP1;P2;durP2;ratioP2
16890;SDS011;8562;52.246;20.966;2023-04-24T00:02:06;8.37;;;4.60;;
16890;SDS011;8562;52.246;20.966;2023-04-24T00:04:34;9.93;;;4.87;;
16890;SDS011;8562;52.246;20.966;2023-04-24T00:07:00;10.43;;;5.37;;
16890;SDS011;8562;52.246;20.966;2023-04-24T00:09:25;8.83;;;5.07;;
16890;SDS011;8562;52.246;20.966;2023-04-24T00:11:51;7.00;;;5.30;;
16890;SDS011;8562;52.246;20.966;2023-04-24T00:14:16;9.23;;;5.33;;
16890;SDS011;8562;52.246;20.966;2023-04-24T00:16:41;7.03;;;5.20;;
16890;SDS011;8562;52.246;20.966;2023-04-24T00:19:07;7.00;;;5.40;;
16890;SDS011;8562;52.246;20.966;2023-04-24T00:21:32;5.37;;;4.40;;
16890;SDS011;8562;52.246;20.966;2023-04-24T00:23:57;8.30;;;5.40;;
16890;SDS011;8562;52.246;20.966;2023-04-24T00:26:23;6.40;;;5.20;;
16890;SDS011;8562;52.246;20.966;2023-04-24T00:28:48;6.00;;;5.10;;
16890;SDS011;8562;52.246;20.966;2023-04-24T00:31:13;6.87;;;5.10;;
16890;SDS011;8562;52.246;20.966;2023-04-24T00:33:39;7.97;;;5.03;;
16890;SDS011;8562;52.246;20.966;2023-04-24T00:36:04;5.80;;;4.77;;
16890;SDS011;8562;52.246;20.966;2023-04-24T00:38:30;7.33;;;5.23;;
16890;SDS011;8562;52.246;20.966;2023-04-24T00:40:56;7.20;;;5.63;;
16890;SDS011;8562;52.246;20.966;2023-04-24T00:43:21;6.33;;;5.20;;
16890;SDS011;8562;52.246;20.966;2023-04-24T00:45:46;7.33;;;5.43;;
16890;SDS011;8562;52.246;20.966;2023-04-24T00:48:12;8.57;;;4.97;;
16890;SDS011;8562;52.246;20.966;2023-04-24T00:50:38;7.63;;;5.37;;
16890;SDS011;8562;52.246;20.966;2023-04-24T00:53:04;6.87;;;5.20;;
16890;SDS011;8562;52.246;20.966;2023-04-24T00:55:29;8.37;;;5.47;;
16890;SDS011;8562;52.246;20.966;2023-04-24T00:57:55;8.17;;;5.47;;
16890;SDS011;8562;52.246;20.966;2023-04-24T01:00:20;7.47;;;5.37;;
16890;SDS011;8562;52.246;20.966;2023-04-24T01:02:46;10.67;;;6.47;;
16890;SDS011;8562;52.246;20.966;2023-04-24T01:05:12;10.80;;;5.87;;
16890;SDS011;8562;52.246;20.966;2023-04-24T01:07:39;7.67;;;5.50;;
16890;SDS011;8562;52.246;20.966;2023-04-24T01:10:05;8.83;;;5.43;;
16890;SDS011;8562;52.246;20.966;2023-04-24T01:12:30;6.27;;;5.27;;
16890;SDS011;8562;52.246;20.966;2023-04-24T01:14:56;7.90;;;5.93;;
16890;SDS011;8562;52.246;20.966;2023-04-24T01:17:22;9.20;;;4.77;;
16890;SDS011;8562;52.246;20.966;2023-04-24T01:19:47;6.33;;;5.00;;
16890;SDS011;8562;52.246;20.966;2023-04-24T01:22:15;6.70;;;5.27;;
16890;SDS011;8562;52.246;20.966;2023-04-24T01:24:41;8.33;;;5.17;;
16890;SDS011;8562;52.246;20.966;2023-04-24T01:27:07;9.57;;;5.47;;
16890;SDS011;8562;52.246;20.966;2023-04-24T01:29:33;10.83;;;5.70;;
16890;SDS011;8562;52.246;20.966;2023-04-24T01:31:58;7.70;;;5.23;;
16890;SDS011;8562;52.246;20.966;2023-04-24T01:34:24;10.47;;;6.40;;
16890;SDS011;8562;52.246;20.966;2023-04-24T01:36:49;9.40;;;6.17;;
16890;SDS011;8562;52.246;20.966;2023-04-24T01:39:15;7.57;;;5.37;;
16890;SDS011;8562;52.246;20.966;2023-04-24T01:41:41;7.73;;;4.83;;
16890;SDS011;8562;52.246;20.966;2023-04-24T01:44:07;7.23;;;4.87;;
16890;SDS011;8562;52.246;20.966;2023-04-24T01:46:34;6.80;;;5.57;;
16890;SDS011;8562;52.246;20.966;2023-04-24T01:49:00;6.90;;;5.03;;
16890;SDS011;8562;52.246;20.966;2023-04-24T01:51:26;10.43;;;5.50;;
16890;SDS011;8562;52.246;20.966;2023-04-24T01:53:52;8.03;;;5.13;;
16890;SDS011;8562;52.246;20.966;2023-04-24T01:56:19;6.50;;;5.03;;
16890;SDS011;8562;52.246;20.966;2023-04-24T01:58:45;6.53;;;5.03;;
16890;SDS011;8562;52.246;20.966;2023-04-24T02:01:14;8.83;;;6.07;;
16890;SDS011;8562;52.246;20.966;2023-04-24T02:03:40;6.30;;;4.10;;
16890;SDS011;8562;52.246;20.966;2023-04-24T02:06:05;7.27;;;5.30;;
16890;SDS011;8562;52.246;20.966;2023-04-24T02:08:31;6.57;;;5.37;;
16890;SDS011;8562;52.246;20.966;2023-04-24T02:10:56;6.97;;;5.33;;
16890;SDS011;8562;52.246;20.966;2023-04-24T02:13:21;9.67;;;6.17;;
16890;SDS011;8562;52.246;20.966;2023-04-24T02:15:46;7.27;;;5.10;;
16890;SDS011;8562;52.246;20.966;2023-04-24T02:18:12;5.83;;;5.17;;
16890;SDS011;8562;52.246;20.966;2023-04-24T02:20:37;7.43;;;5.47;;
16890;SDS011;8562;52.246;20.966;2023-04-24T02:23:03;5.40;;;4.90;;
16890;SDS011;8562;52.246;20.966;2023-04-24T02:25:28;17.67;;;6.20;;
16890;SDS011;8562;52.246;20.966;2023-04-24T02:27:54;7.83;;;5.00;;
16890;SDS011;8562;52.246;20.966;2023-04-24T02:30:19;5.77;;;4.93;;
16890;SDS011;8562;52.246;20.966;2023-04-24T02:32:45;8.20;;;5.40;;
16890;SDS011;8562;52.246;20.966;2023-04-24T02:35:10;7.47;;;5.90;;
16890;SDS011;8562;52.246;20.966;2023-04-24T02:37:35;12.87;;;5.67;;
16890;SDS011;8562;52.246;20.966;2023-04-24T02:40:01;7.70;;;5.50;;
16890;SDS011;8562;52.246;20.966;2023-04-24T02:42:26;11.57;;;6.77;;
16890;SDS011;8562;52.246;20.966;2023-04-24T02:44:51;11.70;;;5.43;;
16890;SDS011;8562;52.246;20.966;2023-04-24T02:47:16;7.57;;;5.90;;
16890;SDS011;8562;52.246;20.966;2023-04-24T02:49:42;6.17;;;5.30;;
16890;SDS011;8562;52.246;20.966;2023-04-24T02:52:07;6.73;;;5.27;;
16890;SDS011;8562;52.246;20.966;2023-04-24T02:54:32;7.13;;;4.83;;
16890;SDS011;8562;52.246;20.966;2023-04-24T02:56:58;7.33;;;5.53;;
16890;SDS011;8562;52.246;20.966;2023-04-24T02:59:23;5.90;;;4.83;;
16890;SDS011;8562;52.246;20.966;2023-04-24T03:01:48;8.07;;;6.03;;
16890;SDS011;8562;52.246;20.966;2023-04-24T03:04:14;8.23;;;5.30;;
16890;SDS011;8562;52.246;20.966;2023-04-24T03:06:40;9.47;;;5.63;;
16890;SDS011;8562;52.246;20.966;2023-04-24T03:09:05;12.83;;;5.37;;
16890;SDS011;8562;52.246;20.966;2023-04-24T03:11:31;8.03;;;6.00;;
16890;SDS011;8562;52.246;20.966;2023-04-24T03:13:56;10.53;;;5.07;;
16890;SDS011;8562;52.246;20.966;2023-04-24T03:16:22;9.13;;;6.13;;
16890;SDS011;8562;52.246;20.966;2023-04-24T03:18:47;7.97;;;5.10;;
16890;SDS011;8562;52.246;20.966;2023-04-24T03:21:13;10.30;;;5.93;;
16890;SDS011;8562;52.246;20.966;2023-04-24T03:23:39;10.03;;;6.07;;
16890;SDS011;8562;52.246;20.966;2023-04-24T03:26:04;14.70;;;7.77;;
16890;SDS011;8562;52.246;20.966;2023-04-24T03:28:31;13.17;;;7.83;;
16890;SDS011;8562;52.246;20.966;2023-04-24T03:30:59;7.53;;;5.47;;
16890;SDS011;8562;52.246;20.966;2023-04-24T03:33:28;8.57;;;5.53;;
16890;SDS011;8562;52.246;20.966;2023-04-24T03:35:59;8.67;;;5.33;;
16890;SDS011;8562;52.246;20.966;2023-04-24T03:38:25;5.77;;;5.07;;
16890;SDS011;8562;52.246;20.966;2023-04-24T03:41:08;7.33;;;5.30;;
16890;SDS011;8562;52.246;20.966;2023-04-24T03:43:41;6.80;;;5.50;;
16890;SDS011;8562;52.246;20.966;2023-04-24T03:46:06;5.80;;;5.10;;
16890;SDS011;8562;52.246;20.966;2023-04-24T03:48:37;9.07;;;5.97;;
16890;SDS011;8562;52.246;20.966;2023-04-24T03:51:03;9.07;;;5.77;;
16890;SDS011;8562;52.246;20.966;2023-04-24T03:53:30;8.70;;;5.43;;
16890;SDS011;8562;52.246;20.966;2023-04-24T03:55:55;6.30;;;5.13;;
16890;SDS011;8562;52.246;20.966;2023-04-24T03:58:21;8.27;;;5.93;;
16890;SDS011;8562;52.246;20.966;2023-04-24T04:00:47;7.53;;;5.00;;
16890;SDS011;8562;52.246;20.966;2023-04-24T04:03:31;5.47;;;4.80;;
16890;SDS011;8562;52.246;20.966;2023-04-24T04:05:57;6.97;;;5.27;;
16890;SDS011;8562;52.246;20.966;2023-04-24T04:08:22;7.83;;;5.47;;
16890;SDS011;8562;52.246;20.966;2023-04-24T04:10:47;8.50;;;5.07;;
16890;SDS011;8562;52.246;20.966;2023-04-24T04:13:13;6.30;;;4.90;;
16890;SDS011;8562;52.246;20.966;2023-04-24T04:15:39;6.53;;;5.10;;
16890;SDS011;8562;52.246;20.966;2023-04-24T04:18:05;7.43;;;5.90;;
16890;SDS011;8562;52.246;20.966;2023-04-24T04:20:30;11.03;;;5.00;;
16890;SDS011;8562;52.246;20.966;2023-04-24T04:22:56;8.37;;;5.93;;
16890;SDS011;8562;52.246;20.966;2023-04-24T04:25:32;6.87;;;5.13;;
16890;SDS011;8562;52.246;20.966;2023-04-24T04:27:57;9.00;;;5.67;;
16890;SDS011;8562;52.246;20.966;2023-04-24T04:30:24;8.07;;;5.23;;
16890;SDS011;8562;52.246;20.966;2023-04-24T04:32:56;12.67;;;6.20;;
16890;SDS011;8562;52.246;20.966;2023-04-24T04:35:21;8.17;;;5.60;;
16890;SDS011;8562;52.246;20.966;2023-04-24T04:37:47;11.90;;;5.43;;
16890;SDS011;8562;52.246;20.966;2023-04-24T04:40:25;8.47;;;5.07;;
16890;SDS011;8562;52.246;20.966;2023-04-24T04:42:57;7.73;;;6.03;;
16890;SDS011;8562;52.246;20.966;2023-04-24T04:45:24;9.10;;;5.10;;
16890;SDS011;8562;52.246;20.966;2023-04-24T04:48:14;8.63;;;5.67;;
16890;SDS011;8562;52.246;20.966;2023-04-24T04:50:42;7.43;;;5.53;;
16890;SDS011;8562;52.246;20.966;2023-04-24T04:53:08;6.60;;;5.40;;
16890;SDS011;8562;52.246;20.966;2023-04-24T04:55:37;7.87;;;5.30;;
16890;SDS011;8562;52.246;20.966;2023-04-24T04:58:14;6.60;;;5.87;;
16890;SDS011;8562;52.246;20.966;2023-04-24T05:00:40;7.87;;;4.90;;
16890;SDS011;8562;52.246;20.966;2023-04-24T05:03:19;6.13;;;5.40;;
16890;SDS011;8562;52.246;20.966;2023-04-24T05:05:45;6.87;;;5.30;;
16890;SDS011;8562;52.246;20.966;2023-04-24T05:08:13;6.90;;;5.20;;
16890;SDS011;8562;52.246;20.966;2023-04-24T05:10:39;10.47;;;5.47;;
16890;SDS011;8562;52.246;20.966;2023-04-24T05:13:05;8.70;;;5.50;;
16890;SDS011;8562;52.246;20.966;2023-04-24T05:15:31;9.27;;;5.80;;
16890;SDS011;8562;52.246;20.966;2023-04-24T05:17:58;6.00;;;4.73;;
16890;SDS011;8562;52.246;20.966;2023-04-24T05:20:25;11.80;;;5.20;;
16890;SDS011;8562;52.246;20.966;2023-04-24T05:22:50;7.00;;;4.93;;
16890;SDS011;8562;52.246;20.966;2023-04-24T05:25:18;8.10;;;5.93;;
16890;SDS011;8562;52.246;20.966;2023-04-24T05:27:53;14.13;;;6.93;;
16890;SDS011;8562;52.246;20.966;2023-04-24T05:30:18;6.93;;;5.30;;
16890;SDS011;8562;52.246;20.966;2023-04-24T05:32:44;6.23;;;5.47;;
16890;SDS011;8562;52.246;20.966;2023-04-24T05:35:10;6.20;;;5.03;;
16890;SDS011;8562;52.246;20.966;2023-04-24T05:37:35;8.37;;;5.57;;
16890;SDS011;8562;52.246;20.966;2023-04-24T05:40:01;7.47;;;4.77;;
16890;SDS011;8562;52.246;20.966;2023-04-24T05:42:26;7.33;;;5.23;;
16890;SDS011;8562;52.246;20.966;2023-04-24T05:44:51;11.90;;;5.80;;
16890;SDS011;8562;52.246;20.966;2023-04-24T05:47:19;8.53;;;5.47;;
16890;SDS011;8562;52.246;20.966;2023-04-24T05:49:44;7.43;;;5.27;;
16890;SDS011;8562;52.246;20.966;2023-04-24T05:52:09;6.77;;;5.00;;
16890;SDS011;8562;52.246;20.966;2023-04-24T05:54:37;8.13;;;6.10;;
16890;SDS011;8562;52.246;20.966;2023-04-24T05:57:02;9.23;;;5.10;;
16890;SDS011;8562;52.246;20.966;2023-04-24T05:59:44;8.07;;;5.10;;
16890;SDS011;8562;52.246;20.966;2023-04-24T06:02:11;9.27;;;5.03;;
16890;SDS011;8562;52.246;20.966;2023-04-24T06:04:36;8.83;;;5.10;;
16890;SDS011;8562;52.246;20.966;2023-04-24T06:07:02;7.40;;;4.67;;
16890;SDS011;8562;52.246;20.966;2023-04-24T06:09:28;7.00;;;4.90;;
16890;SDS011;8562;52.246;20.966;2023-04-24T06:11:53;5.83;;;4.50;;
16890;SDS011;8562;52.246;20.966;2023-04-24T06:14:22;6.37;;;4.90;;
16890;SDS011;8562;52.246;20.966;2023-04-24T06:17:06;7.07;;;5.40;;
16890;SDS011;8562;52.246;20.966;2023-04-24T06:19:36;5.07;;;4.17;;
16890;SDS011;8562;52.246;20.966;2023-04-24T06:22:01;7.60;;;5.30;;
16890;SDS011;8562;52.246;20.966;2023-04-24T06:24:27;11.43;;;5.27;;
16890;SDS011;8562;52.246;20.966;2023-04-24T06:26:52;7.87;;;5.20;;
16890;SDS011;8562;52.246;20.966;2023-04-24T06:29:18;7.37;;;5.47;;
16890;SDS011;8562;52.246;20.966;2023-04-24T06:31:43;14.83;;;5.20;;
16890;SDS011;8562;52.246;20.966;2023-04-24T06:34:09;7.73;;;5.83;;
16890;SDS011;8562;52.246;20.966;2023-04-24T06:36:34;6.47;;;4.40;;
16890;SDS011;8562;52.246;20.966;2023-04-24T06:39:00;6.63;;;4.50;;
16890;SDS011;8562;52.246;20.966;2023-04-24T06:41:26;7.17;;;5.30;;
16890;SDS011;8562;52.246;20.966;2023-04-24T06:43:51;6.30;;;4.80;;
16890;SDS011;8562;52.246;20.966;2023-04-24T06:46:17;8.57;;;5.43;;
16890;SDS011;8562;52.246;20.966;2023-04-24T06:48:42;9.20;;;5.27;;
16890;SDS011;8562;52.246;20.966;2023-04-24T06:51:07;6.73;;;4.77;;
16890;SDS011;8562;52.246;20.966;2023-04-24T06:53:33;9.93;;;5.10;;
16890;SDS011;8562;52.246;20.966;2023-04-24T06:55:58;9.63;;;4.60;;
16890;SDS011;8562;52.246;20.966;2023-04-24T06:58:24;8.03;;;4.73;;
16890;SDS011;8562;52.246;20.966;2023-04-24T07:00:49;9.10;;;4.93;;
16890;SDS011;8562;52.246;20.966;2023-04-24T07:03:15;16.50;;;5.33;;
16890;SDS011;8562;52.246;20.966;2023-04-24T07:05:40;5.93;;;5.37;;
16890;SDS011;8562;52.246;20.966;2023-04-24T07:08:06;6.67;;;5.03;;
16890;SDS011;8562;52.246;20.966;2023-04-24T07:10:32;5.60;;;4.93;;
16890;SDS011;8562;52.246;20.966;2023-04-24T07:12:59;7.50;;;5.00;;
16890;SDS011;8562;52.246;20.966;2023-04-24T07:15:25;11.60;;;5.43;;
16890;SDS011;8562;52.246;20.966;2023-04-24T07:17:50;7.93;;;4.83;;
16890;SDS011;8562;52.246;20.966;2023-04-24T07:20:15;8.20;;;4.60;;
16890;SDS011;8562;52.246;20.966;2023-04-24T07:22:41;10.17;;;5.40;;
16890;SDS011;8562;52.246;20.966;2023-04-24T07:25:06;8.83;;;6.07;;
16890;SDS011;8562;52.246;20.966;2023-04-24T07:27:32;7.73;;;4.60;;
16890;SDS011;8562;52.246;20.966;2023-04-24T07:29:58;9.73;;;5.03;;
16890;SDS011;8562;52.246;20.966;2023-04-24T07:32:23;11.53;;;5.17;;
16890;SDS011;8562;52.246;20.966;2023-04-24T07:34:48;6.40;;;4.50;;
16890;SDS011;8562;52.246;20.966;2023-04-24T07:37:13;13.17;;;4.47;;
16890;SDS011;8562;52.246;20.966;2023-04-24T07:39:39;7.30;;;5.13;;
16890;SDS011;8562;52.246;20.966;2023-04-24T07:42:04;8.07;;;4.60;;
16890;SDS011;8562;52.246;20.966;2023-04-24T07:44:29;7.70;;;4.70;;
16890;SDS011;8562;52.246;20.966;2023-04-24T07:46:55;10.90;;;4.73;;
16890;SDS011;8562;52.246;20.966;2023-04-24T07:49:20;6.67;;;4.77;;
16890;SDS011;8562;52.246;20.966;2023-04-24T07:51:46;7.53;;;5.20;;
16890;SDS011;8562;52.246;20.966;2023-04-24T07:54:11;7.77;;;5.33;;
16890;SDS011;8562;52.246;20.966;2023-04-24T07:56:36;9.37;;;4.90;;
16890;SDS011;8562;52.246;20.966;2023-04-24T07:59:04;8.23;;;4.70;;
16890;SDS011;8562;52.246;20.966;2023-04-24T08:01:29;5.57;;;5.07;;
16890;SDS011;8562;52.246;20.966;2023-04-24T08:03:54;8.27;;;5.30;;
16890;SDS011;8562;52.246;20.966;2023-04-24T08:06:20;8.90;;;6.23;;
16890;SDS011;8562;52.246;20.966;2023-04-24T08:08:45;8.83;;;5.57;;
16890;SDS011;8562;52.246;20.966;2023-04-24T08:11:11;8.77;;;5.63;;
16890;SDS011;8562;52.246;20.966;2023-04-24T08:13:36;9.83;;;5.73;;
16890;SDS011;8562;52.246;20.966;2023-04-24T08:16:01;12.17;;;6.17;;
16890;SDS011;8562;52.246;20.966;2023-04-24T08:18:27;7.23;;;5.27;;
16890;SDS011;8562;52.246;20.966;2023-04-24T08:20:52;9.03;;;5.60;;
16890;SDS011;8562;52.246;20.966;2023-04-24T08:23:17;9.40;;;5.80;;
16890;SDS011;8562;52.246;20.966;2023-04-24T08:25:42;8.40;;;5.57;;
16890;SDS011;8562;52.246;20.966;2023-04-24T08:28:08;8.37;;;5.57;;
16890;SDS011;8562;52.246;20.966;2023-04-24T08:30:33;9.73;;;6.23;;
16890;SDS011;8562;52.246;20.966;2023-04-24T08:32:59;8.97;;;5.83;;
16890;SDS011;8562;52.246;20.966;2023-04-24T08:35:24;6.30;;;5.70;;
16890;SDS011;8562;52.246;20.966;2023-04-24T08:37:51;9.27;;;5.57;;
16890;SDS011;8562;52.246;20.966;2023-04-24T08:40:16;6.77;;;6.07;;
16890;SDS011;8562;52.246;20.966;2023-04-24T08:42:42;10.40;;;6.10;;
16890;SDS011;8562;52.246;20.966;2023-04-24T08:45:08;7.67;;;5.57;;
16890;SDS011;8562;52.246;20.966;2023-04-24T08:47:34;14.87;;;6.37;;
16890;SDS011;8562;52.246;20.966;2023-04-24T08:50:00;7.50;;;5.63;;
16890;SDS011;8562;52.246;20.966;2023-04-24T08:52:27;9.53;;;6.47;;
16890;SDS011;8562;52.246;20.966;2023-04-24T08:54:53;8.17;;;5.37;;
16890;SDS011;8562;52.246;20.966;2023-04-24T08:57:19;7.63;;;5.33;;
16890;SDS011;8562;52.246;20.966;2023-04-24T08:59:45;7.83;;;5.47;;
16890;SDS011;8562;52.246;20.966;2023-04-24T09:02:10;7.90;;;6.07;;
16890;SDS011;8562;52.246;20.966;2023-04-24T09:04:36;7.87;;;5.57;;
16890;SDS011;8562;52.246;20.966;2023-04-24T09:07:02;8.60;;;5.23;;
16890;SDS011;8562;52.246;20.966;2023-04-24T09:09:30;9.67;;;5.83;;
16890;SDS011;8562;52.246;20.966;2023-04-24T09:11:56;10.13;;;5.33;;
16890;SDS011;8562;52.246;20.966;2023-04-24T09:14:22;8.20;;;5.50;;
16890;SDS011;8562;52.246;20.966;2023-04-24T09:16:48;7.93;;;5.30;;
16890;SDS011;8562;52.246;20.966;2023-04-24T09:19:14;11.63;;;5.47;;
16890;SDS011;8562;52.246;20.966;2023-04-24T09:21:39;6.93;;;5.37;;
16890;SDS011;8562;52.246;20.966;2023-04-24T09:24:07;14.37;;;5.20;;
16890;SDS011;8562;52.246;20.966;2023-04-24T09:26:35;11.90;;;5.30;;
16890;SDS011;8562;52.246;20.966;2023-04-24T09:29:00;5.47;;;3.97;;
16890;SDS011;8562;52.246;20.966;2023-04-24T09:31:26;7.77;;;4.70;;
16890;SDS011;8562;52.246;20.966;2023-04-24T09:36:30;5.93;;;4.43;;
16890;SDS011;8562;52.246;20.966;2023-04-24T09:39:00;9.10;;;4.83;;
16890;SDS011;8562;52.246;20.966;2023-04-24T09:41:25;4.93;;;4.37;;
16890;SDS011;8562;52.246;20.966;2023-04-24T09:43:50;6.90;;;3.90;;
16890;SDS011;8562;52.246;20.966;2023-04-24T09:46:18;8.73;;;3.83;;
16890;SDS011;8562;52.246;20.966;2023-04-24T09:48:43;5.73;;;3.33;;
16890;SDS011;8562;52.246;20.966;2023-04-24T09:51:09;14.17;;;3.87;;
16890;SDS011;8562;52.246;20.966;2023-04-24T09:53:38;5.33;;;4.07;;
16890;SDS011;8562;52.246;20.966;2023-04-24T09:56:09;7.43;;;4.40;;
16890;SDS011;8562;52.246;20.966;2023-04-24T09:58:35;4.70;;;4.13;;
16890;SDS011;8562;52.246;20.966;2023-04-24T10:01:01;6.77;;;3.67;;
16890;SDS011;8562;52.246;20.966;2023-04-24T10:03:29;8.93;;;4.10;;
16890;SDS011;8562;52.246;20.966;2023-04-24T10:05:54;5.33;;;3.30;;
16890;SDS011;8562;52.246;20.966;2023-04-24T10:08:23;6.47;;;3.57;;
16890;SDS011;8562;52.246;20.966;2023-04-24T10:10:48;4.43;;;3.57;;
16890;SDS011;8562;52.246;20.966;2023-04-24T10:13:14;4.33;;;3.17;;
16890;SDS011;8562;52.246;20.966;2023-04-24T10:15:43;6.70;;;3.77;;
16890;SDS011;8562;52.246;20.966;2023-04-24T10:18:09;5.60;;;3.60;;
16890;SDS011;8562;52.246;20.966;2023-04-24T10:20:35;4.80;;;3.83;;
16890;SDS011;8562;52.246;20.966;2023-04-24T10:23:00;6.20;;;3.87;;
16890;SDS011;8562;52.246;20.966;2023-04-24T10:25:27;9.10;;;3.97;;
16890;SDS011;8562;52.246;20.966;2023-04-24T10:27:53;7.10;;;4.67;;
16890;SDS011;8562;52.246;20.966;2023-04-24T10:30:19;6.50;;;4.67;;
16890;SDS011;8562;52.246;20.966;2023-04-24T10:32:45;5.30;;;3.77;;
16890;SDS011;8562;52.246;20.966;2023-04-24T10:35:13;8.63;;;4.60;;
16890;SDS011;8562;52.246;20.966;2023-04-24T10:37:44;5.40;;;3.67;;
16890;SDS011;8562;52.246;20.966;2023-04-24T10:40:10;6.17;;;4.30;;
16890;SDS011;8562;52.246;20.966;2023-04-24T10:42:39;5.77;;;4.50;;
16890;SDS011;8562;52.246;20.966;2023-04-24T10:45:18;8.87;;;4.60;;
16890;SDS011;8562;52.246;20.966;2023-04-24T10:47:51;5.37;;;3.90;;
16890;SDS011;8562;52.246;20.966;2023-04-24T10:50:16;6.97;;;3.90;;
16890;SDS011;8562;52.246;20.966;2023-04-24T10:52:48;7.50;;;4.00;;
16890;SDS011;8562;52.246;20.966;2023-04-24T10:55:13;6.20;;;4.70;;
16890;SDS011;8562;52.246;20.966;2023-04-24T10:58:00;6.80;;;4.73;;
16890;SDS011;8562;52.246;20.966;2023-04-24T11:00:26;8.50;;;4.47;;
16890;SDS011;8562;52.246;20.966;2023-04-24T11:02:52;6.60;;;4.37;;
16890;SDS011;8562;52.246;20.966;2023-04-24T11:05:19;7.17;;;4.80;;
16890;SDS011;8562;52.246;20.966;2023-04-24T11:10:45;4.93;;;3.90;;
16890;SDS011;8562;52.246;20.966;2023-04-24T11:13:17;6.93;;;4.43;;
16890;SDS011;8562;52.246;20.966;2023-04-24T11:15:46;4.73;;;4.23;;
16890;SDS011;8562;52.246;20.966;2023-04-24T11:18:36;5.63;;;3.90;;
16890;SDS011;8562;52.246;20.966;2023-04-24T11:21:09;4.73;;;3.60;;
16890;SDS011;8562;52.246;20.966;2023-04-24T11:23:37;6.97;;;4.00;;
16890;SDS011;8562;52.246;20.966;2023-04-24T11:26:12;6.23;;;3.77;;
16890;SDS011;8562;52.246;20.966;2023-04-24T11:28:43;5.17;;;4.13;;
16890;SDS011;8562;52.246;20.966;2023-04-24T11:33:53;7.80;;;3.97;;
16890;SDS011;8562;52.246;20.966;2023-04-24T11:36:19;7.10;;;4.20;;
16890;SDS011;8562;52.246;20.966;2023-04-24T11:38:44;4.70;;;3.80;;
16890;SDS011;8562;52.246;20.966;2023-04-24T11:41:10;6.67;;;3.60;;
16890;SDS011;8562;52.246;20.966;2023-04-24T11:43:36;8.83;;;3.90;;
16890;SDS011;8562;52.246;20.966;2023-04-24T11:46:01;7.77;;;3.60;;
16890;SDS011;8562;52.246;20.966;2023-04-24T11:48:27;4.10;;;3.10;;
16890;SDS011;8562;52.246;20.966;2023-04-24T11:50:52;4.87;;;3.53;;
16890;SDS011;8562;52.246;20.966;2023-04-24T11:53:21;5.37;;;3.83;;
16890;SDS011;8562;52.246;20.966;2023-04-24T11:55:46;7.97;;;3.27;;
16890;SDS011;8562;52.246;20.966;2023-04-24T11:58:12;5.87;;;3.43;;
16890;SDS011;8562;52.246;20.966;2023-04-24T12:00:37;5.47;;;3.63;;
16890;SDS011;8562;52.246;20.966;2023-04-24T12:03:04;8.33;;;3.97;;
16890;SDS011;8562;52.246;20.966;2023-04-24T12:05:30;4.07;;;3.53;;
16890;SDS011;8562;52.246;20.966;2023-04-24T12:07:56;4.67;;;3.00;;
16890;SDS011;8562;52.246;20.966;2023-04-24T12:10:22;7.80;;;3.67;;
16890;SDS011;8562;52.246;20.966;2023-04-24T12:12:48;3.40;;;2.80;;
16890;SDS011;8562;52.246;20.966;2023-04-24T12:15:15;3.90;;;3.53;;
16890;SDS011;8562;52.246;20.966;2023-04-24T12:17:41;5.87;;;3.73;;
16890;SDS011;8562;52.246;20.966;2023-04-24T12:20:07;3.67;;;3.33;;
16890;SDS011;8562;52.246;20.966;2023-04-24T12:22:55;3.83;;;3.20;;
16890;SDS011;8562;52.246;20.966;2023-04-24T12:25:24;3.97;;;3.37;;
16890;SDS011;8562;52.246;20.966;2023-04-24T12:27:54;6.57;;;3.83;;
16890;SDS011;8562;52.246;20.966;2023-04-24T12:30:20;4.40;;;3.30;;
16890;SDS011;8562;52.246;20.966;2023-04-24T12:32:47;4.33;;;3.20;;
16890;SDS011;8562;52.246;20.966;2023-04-24T12:35:13;5.70;;;3.90;;
16890;SDS011;8562;52.246;20.966;2023-04-24T12:37:41;4.13;;;3.73;;
16890;SDS011;8562;52.246;20.966;2023-04-24T12:40:10;3.93;;;2.77;;
16890;SDS011;8562;52.246;20.966;2023-04-24T12:42:41;8.77;;;3.80;;
16890;SDS011;8562;52.246;20.966;2023-04-24T12:45:07;11.43;;;3.67;;
16890;SDS011;8562;52.246;20.966;2023-04-24T12:47:33;4.03;;;3.10;;
16890;SDS011;8562;52.246;20.966;2023-04-24T12:49:58;3.67;;;3.27;;
16890;SDS011;8562;52.246;20.966;2023-04-24T12:52:24;9.50;;;3.47;;
16890;SDS011;8562;52.246;20.966;2023-04-24T12:54:52;9.47;;;3.90;;
16890;SDS011;8562;52.246;20.966;2023-04-24T12:57:18;6.63;;;2.90;;
16890;SDS011;8562;52.246;20.966;2023-04-24T12:59:43;7.43;;;2.77;;
16890;SDS011;8562;52.246;20.966;2023-04-24T13:02:09;7.17;;;3.53;;
16890;SDS011;8562;52.246;20.966;2023-04-24T13:04:35;17.70;;;4.27;;
16890;SDS011;8562;52.246;20.966;2023-04-24T13:07:00;12.90;;;2.33;;
16890;SDS011;8562;52.246;20.966;2023-04-24T13:09:25;4.30;;;3.30;;
16890;SDS011;8562;52.246;20.966;2023-04-24T13:11:51;5.80;;;3.27;;
16890;SDS011;8562;52.246;20.966;2023-04-24T13:14:16;5.17;;;2.33;;
16890;SDS011;8562;52.246;20.966;2023-04-24T13:16:41;2.93;;;2.37;;
16890;SDS011;8562;52.246;20.966;2023-04-24T13:19:06;5.33;;;2.67;;
16890;SDS011;8562;52.246;20.966;2023-04-24T13:21:32;2.33;;;2.13;;
16890;SDS011;8562;52.246;20.966;2023-04-24T13:23:57;2.93;;;2.60;;
16890;SDS011;8562;52.246;20.966;2023-04-24T13:26:22;2.80;;;2.30;;
16890;SDS011;8562;52.246;20.966;2023-04-24T13:28:48;5.00;;;2.80;;
16890;SDS011;8562;52.246;20.966;2023-04-24T13:31:13;3.23;;;2.23;;
16890;SDS011;8562;52.246;20.966;2023-04-24T13:33:38;5.33;;;2.63;;
16890;SDS011;8562;52.246;20.966;2023-04-24T13:36:04;5.00;;;2.53;;
16890;SDS011;8562;52.246;20.966;2023-04-24T13:38:29;3.77;;;2.60;;
16890;SDS011;8562;52.246;20.966;2023-04-24T13:40:54;3.40;;;2.30;;
16890;SDS011;8562;52.246;20.966;2023-04-24T13:43:20;7.63;;;2.20;;
16890;SDS011;8562;52.246;20.966;2023-04-24T13:45:45;2.83;;;2.40;;
16890;SDS011;8562;52.246;20.966;2023-04-24T13:48:10;7.33;;;2.90;;
16890;SDS011;8562;52.246;20.966;2023-04-24T13:50:36;3.67;;;2.60;;
16890;SDS011;8562;52.246;20.966;2023-04-24T13:53:01;6.50;;;2.63;;
16890;SDS011;8562;52.246;20.966;2023-04-24T13:55:27;3.90;;;2.23;;
16890;SDS011;8562;52.246;20.966;2023-04-24T13:57:52;13.73;;;2.47;;
16890;SDS011;8562;52.246;20.966;2023-04-24T14:00:20;2.60;;;2.23;;
16890;SDS011;8562;52.246;20.966;2023-04-24T14:02:45;4.27;;;2.33;;
16890;SDS011;8562;52.246;20.966;2023-04-24T14:05:12;5.47;;;2.37;;
16890;SDS011;8562;52.246;20.966;2023-04-24T14:07:39;3.07;;;2.40;;
16890;SDS011;8562;52.246;20.966;2023-04-24T14:10:04;4.60;;;2.17;;
16890;SDS011;8562;52.246;20.966;2023-04-24T14:12:30;2.87;;;2.40;;
16890;SDS011;8562;52.246;20.966;2023-04-24T14:14:55;3.50;;;2.90;;
16890;SDS011;8562;52.246;20.966;2023-04-24T14:17:20;7.00;;;2.10;;
16890;SDS011;8562;52.246;20.966;2023-04-24T14:19:46;3.83;;;2.20;;
16890;SDS011;8562;52.246;20.966;2023-04-24T14:22:11;2.63;;;2.40;;
16890;SDS011;8562;52.246;20.966;2023-04-24T14:24:37;2.53;;;2.10;;
16890;SDS011;8562;52.246;20.966;2023-04-24T14:27:02;3.77;;;2.70;;
16890;SDS011;8562;52.246;20.966;2023-04-24T14:29:28;3.57;;;2.17;;
16890;SDS011;8562;52.246;20.966;2023-04-24T14:31:53;3.70;;;2.80;;
16890;SDS011;8562;52.246;20.966;2023-04-24T14:34:18;3.77;;;2.50;;
16890;SDS011;8562;52.246;20.966;2023-04-24T14:36:44;2.53;;;2.30;;
16890;SDS011;8562;52.246;20.966;2023-04-24T14:39:09;2.47;;;2.23;;
16890;SDS011;8562;52.246;20.966;2023-04-24T14:41:35;2.30;;;2.07;;
16890;SDS011;8562;52.246;20.966;2023-04-24T14:44:02;2.43;;;2.23;;
16890;SDS011;8562;52.246;20.966;2023-04-24T14:46:28;2.50;;;2.30;;
16890;SDS011;8562;52.246;20.966;2023-04-24T14:48:54;2.07;;;1.97;;
16890;SDS011;8562;52.246;20.966;2023-04-24T14:51:19;1.90;;;1.80;;